Time;durP1;ratioP1;P1;durP2;ratioP2;P2;SDS_P1;SDS_P2;PMS_P1;PMS_P2;Temp;Humidity;BMP_temperature;BMP_pressure;BME280_temperature;BME280_humidity;BME280_pressure;Samples;Min_cycle;Max_cycle;Signal;HPM_P1;HPM_P2
2023/03/07 00:00:59;;;;;;;8.15;4.00;;;5.80;98.80;;;;;;10094714;28;20108;-66
2023/03/07 00:06:01;;;;;;;10.88;4.40;;;5.80;98.80;;;;;;10098223;28;20392;-65
2023/03/07 00:10:52;;;;;;;11.02;4.68;;;5.80;98.80;;;;;;10099397;28;20025;-66
2023/03/07 00:15:43;;;;;;;12.50;5.35;;;5.80;98.80;;;;;;10081160;28;20033;-66
2023/03/07 00:20:34;;;;;;;8.55;4.90;;;5.90;98.70;;;;;;10098743;28;20491;-66
2023/03/07 00:25:25;;;;;;;11.00;5.20;;;5.90;98.70;;;;;;10097201;28;20302;-66
2023/03/07 00:30:15;;;;;;;8.23;4.53;;;5.90;98.70;;;;;;10097118;28;20176;-66
2023/03/07 00:35:07;;;;;;;11.32;4.13;;;5.90;98.70;;;;;;10098861;28;20102;-65
2023/03/07 00:39:58;;;;;;;10.98;5.03;;;5.90;98.70;;;;;;10097531;28;20041;-66
2023/03/07 00:44:48;;;;;;;10.85;5.20;;;5.90;98.70;;;;;;10096566;28;20052;-66
2023/03/07 00:49:39;;;;;;;9.65;4.78;;;5.90;98.70;;;;;;10096589;28;20114;-66
2023/03/07 00:54:33;;;;;;;11.98;5.70;;;5.90;98.70;;;;;;10097763;28;20044;-66
2023/03/07 00:59:24;;;;;;;9.95;4.68;;;5.90;98.70;;;;;;10087876;28;20031;-66
2023/03/07 01:04:15;;;;;;;11.05;4.93;;;5.80;98.70;;;;;;10089560;28;20694;-65
2023/03/07 01:09:06;;;;;;;9.52;4.10;;;5.80;98.70;;;;;;10097889;28;20228;-67
2023/03/07 01:13:59;;;;;;;10.35;4.35;;;5.80;98.70;;;;;;10090467;28;20116;-66
2023/03/07 01:18:52;;;;;;;6.45;3.90;;;5.80;98.70;;;;;;10104044;28;20601;-66
2023/03/07 01:23:44;;;;;;;10.93;4.80;;;5.80;98.90;;;;;;10104138;28;20056;-66
2023/03/07 01:28:34;;;;;;;8.95;3.78;;;5.80;98.70;;;;;;10101214;28;20017;-65
2023/03/07 01:33:25;;;;;;;8.82;4.13;;;5.80;98.70;;;;;;10105025;28;20025;-66
2023/03/07 01:38:16;;;;;;;8.13;3.97;;;5.90;98.70;;;;;;10105436;28;20116;-65
2023/03/07 01:43:29;;;;;;;10.65;4.60;;;5.90;98.60;;;;;;10104726;28;20040;-65
2023/03/07 01:48:20;;;;;;;10.85;4.57;;;5.90;98.70;;;;;;10096036;28;20083;-65
2023/03/07 01:53:14;;;;;;;8.20;3.60;;;5.90;98.60;;;;;;10104766;28;20028;-65
2023/03/07 01:58:11;;;;;;;7.65;4.40;;;5.90;98.60;;;;;;10093276;28;20024;-65
2023/03/07 02:03:34;;;;;;;8.68;4.25;;;5.80;98.60;;;;;;10095313;28;20040;-65
2023/03/07 02:08:28;;;;;;;9.82;4.43;;;5.80;98.70;;;;;;10101043;28;20555;-68
2023/03/07 02:13:19;;;;;;;7.57;4.13;;;5.80;98.60;;;;;;10095946;28;20546;-65
2023/03/07 02:18:14;;;;;;;6.13;3.65;;;5.70;98.60;;;;;;10103301;28;20078;-66
2023/03/07 02:23:12;;;;;;;9.48;4.80;;;5.70;98.60;;;;;;10102626;28;20029;-67
2023/03/07 02:28:03;;;;;;;9.32;4.00;;;5.70;98.70;;;;;;10101517;28;20400;-66
2023/03/07 02:32:54;;;;;;;9.35;4.70;;;5.60;98.70;;;;;;10102842;28;20065;-66
2023/03/07 02:37:48;;;;;;;11.63;4.25;;;5.60;98.70;;;;;;10102302;28;20687;-65
2023/03/07 02:42:41;;;;;;;8.98;4.18;;;5.60;98.70;;;;;;10099528;28;20037;-65
2023/03/07 02:47:32;;;;;;;10.68;4.43;;;5.60;98.70;;;;;;10102277;28;20025;-65
2023/03/07 02:52:22;;;;;;;7.88;3.95;;;5.50;98.80;;;;;;10102329;28;20025;-66
2023/03/07 02:57:14;;;;;;;11.63;4.95;;;5.50;98.80;;;;;;10090675;28;20036;-66
2023/03/07 03:02:05;;;;;;;8.68;4.70;;;5.60;98.70;;;;;;10094532;28;20034;-65
2023/03/07 03:06:55;;;;;;;9.60;4.32;;;5.60;98.80;;;;;;10099842;28;20024;-64
2023/03/07 03:11:46;;;;;;;7.20;4.10;;;5.50;98.80;;;;;;10101368;28;20044;-65
2023/03/07 03:16:38;;;;;;;11.95;4.68;;;5.50;98.80;;;;;;10095052;28;20031;-64
2023/03/07 03:21:29;;;;;;;12.57;4.88;;;5.60;98.80;;;;;;10080968;28;20029;-65
2023/03/07 03:26:19;;;;;;;7.57;4.43;;;5.50;98.80;;;;;;10100629;28;20102;-65
2023/03/07 03:31:13;;;;;;;6.97;3.88;;;5.50;98.90;;;;;;10100293;28;20029;-65
2023/03/07 03:36:07;;;;;;;10.30;4.05;;;5.50;98.80;;;;;;10099283;28;20021;-65
2023/03/07 03:40:58;;;;;;;7.95;4.10;;;5.50;98.80;;;;;;10099940;28;20154;-66
2023/03/07 03:45:56;;;;;;;9.77;4.38;;;5.50;98.80;;;;;;10097704;28;20132;-66
2023/03/07 03:50:47;;;;;;;15.20;4.57;;;5.50;98.80;;;;;;10099215;28;20446;-65
2023/03/07 03:55:38;;;;;;;13.32;4.28;;;5.40;98.90;;;;;;10097609;28;20031;-64
2023/03/07 04:00:29;;;;;;;8.18;3.65;;;5.40;98.90;;;;;;10091072;28;20060;-65
2023/03/07 04:05:20;;;;;;;9.27;4.63;;;5.40;99.00;;;;;;10088435;28;20107;-64
2023/03/07 04:10:10;;;;;;;11.60;3.95;;;5.40;99.00;;;;;;10093866;28;20119;-65
2023/03/07 04:15:01;;;;;;;12.15;4.82;;;5.40;99.00;;;;;;10093220;28;20132;-66
2023/03/07 04:19:52;;;;;;;8.73;4.40;;;5.40;99.00;;;;;;10097734;28;20036;-66
2023/03/07 04:24:44;;;;;;;9.45;5.40;;;5.40;99.00;;;;;;10096290;28;20063;-65
2023/03/07 04:29:34;;;;;;;10.68;4.32;;;5.30;99.00;;;;;;10091267;28;20057;-67
2023/03/07 04:34:25;;;;;;;6.78;4.53;;;5.40;99.10;;;;;;10097345;28;20029;-66
2023/03/07 04:39:15;;;;;;;10.95;4.13;;;5.30;99.10;;;;;;10097859;28;20082;-65
2023/03/07 04:44:15;;;;;;;10.68;4.60;;;5.30;99.10;;;;;;10098511;28;20122;-66
2023/03/07 04:49:08;;;;;;;8.13;3.83;;;5.40;99.10;;;;;;10084868;28;20051;-65
2023/03/07 04:53:59;;;;;;;8.20;4.05;;;5.40;99.10;;;;;;10100280;28;20026;-64
2023/03/07 04:58:50;;;;;;;11.02;4.70;;;5.40;99.10;;;;;;10095756;28;20115;-66
2023/03/07 05:03:40;;;;;;;11.40;5.05;;;5.40;99.40;;;;;;10095417;28;20029;-65
2023/03/07 05:08:32;;;;;;;10.48;4.78;;;5.40;99.20;;;;;;10106014;28;20021;-66
2023/03/07 05:13:23;;;;;;;8.10;4.50;;;5.30;99.10;;;;;;10101311;28;20515;-66
2023/03/07 05:18:13;;;;;;;10.45;4.15;;;5.30;99.20;;;;;;10103562;28;20021;-67
2023/03/07 05:23:04;;;;;;;10.55;5.50;;;5.30;99.30;;;;;;10105008;28;20037;-65
2023/03/07 05:27:54;;;;;;;10.30;4.78;;;5.30;99.30;;;;;;10103576;28;20048;-66
2023/03/07 05:32:45;;;;;;;11.95;4.95;;;5.30;99.30;;;;;;10103067;28;20044;-66
2023/03/07 05:37:36;;;;;;;7.38;4.28;;;5.40;99.30;;;;;;10104542;28;20097;-66
2023/03/07 05:42:26;;;;;;;8.95;4.90;;;5.20;99.30;;;;;;10104952;28;20032;-66
2023/03/07 05:47:17;;;;;;;10.30;4.53;;;5.20;99.40;;;;;;10099836;28;20014;-66
2023/03/07 05:52:08;;;;;;;7.43;3.95;;;5.20;99.40;;;;;;10104143;28;20100;-66
2023/03/07 05:56:58;;;;;;;12.32;4.80;;;5.30;99.50;;;;;;10102180;28;20104;-66
2023/03/07 06:01:49;;;;;;;9.30;5.07;;;5.20;99.40;;;;;;10095127;28;20068;-65
2023/03/07 06:06:39;;;;;;;8.93;4.03;;;5.20;99.50;;;;;;10099705;28;20303;-66
2023/03/07 06:11:31;;;;;;;11.18;4.60;;;5.20;99.60;;;;;;10101386;28;20400;-66
2023/03/07 06:16:22;;;;;;;12.30;4.72;;;5.30;99.60;;;;;;10098884;28;20014;-66
2023/03/07 06:21:15;;;;;;;11.20;4.45;;;5.30;99.60;;;;;;10101926;28;20950;-65
2023/03/07 06:26:06;;;;;;;6.90;3.72;;;5.20;99.60;;;;;;10100440;28;20068;-66
2023/03/07 06:30:57;;;;;;;8.45;4.10;;;5.20;99.70;;;;;;10103675;28;20025;-66
2023/03/07 06:35:48;;;;;;;8.90;3.83;;;5.30;99.60;;;;;;10102502;28;20601;-66
2023/03/07 06:40:39;;;;;;;12.82;4.45;;;5.40;99.60;;;;;;10089783;28;20025;-67
2023/03/07 06:45:30;;;;;;;10.65;5.20;;;5.30;99.70;;;;;;10101691;28;20124;-65
2023/03/07 06:50:20;;;;;;;9.27;4.13;;;5.30;99.70;;;;;;10102093;28;20017;-67
2023/03/07 06:55:11;;;;;;;9.38;4.55;;;5.30;99.70;;;;;;10096164;28;20025;-66
2023/03/07 07:00:04;;;;;;;8.15;4.28;;;5.50;99.70;;;;;;10091737;28;20022;-66
2023/03/07 07:04:56;;;;;;;8.63;4.85;;;5.40;99.70;;;;;;10100864;28;20106;-65
2023/03/07 07:09:47;;;;;;;10.57;5.20;;;5.40;99.70;;;;;;10100702;28;20021;-65
2023/03/07 07:14:37;;;;;;;8.25;4.85;;;5.50;99.70;;;;;;10091373;28;20028;-66
2023/03/07 07:19:28;;;;;;;11.48;4.90;;;5.40;99.80;;;;;;10100672;28;20641;-65
2023/03/07 07:24:19;;;;;;;8.77;3.97;;;5.40;99.80;;;;;;10098161;28;20037;-66
2023/03/07 07:29:09;;;;;;;9.32;4.63;;;5.40;99.80;;;;;;10090654;28;20028;-66
2023/03/07 07:34:00;;;;;;;10.80;5.05;;;5.50;99.80;;;;;;10072868;28;20056;-67
2023/03/07 07:38:51;;;;;;;14.10;6.03;;;5.50;99.80;;;;;;10079435;28;20032;-66
2023/03/07 07:43:42;;;;;;;9.95;4.55;;;5.50;99.70;;;;;;10085495;28;20387;-66
2023/03/07 07:48:32;;;;;;;9.35;4.78;;;5.50;99.80;;;;;;10079268;28;20091;-67
2023/03/07 07:53:23;;;;;;;17.88;5.78;;;5.50;99.70;;;;;;10082818;28;20029;-67
2023/03/07 07:58:14;;;;;;;9.43;4.47;;;5.50;99.80;;;;;;10088344;28;20099;-67
2023/03/07 08:03:04;;;;;;;9.60;4.95;;;5.50;99.80;;;;;;10081727;28;20109;-67
2023/03/07 08:07:55;;;;;;;8.35;4.70;;;5.50;99.80;;;;;;10085970;28;20025;-65
2023/03/07 08:12:54;;;;;;;12.88;5.20;;;5.60;99.70;;;;;;10087854;28;20028;-65
2023/03/07 08:17:45;;;;;;;11.00;5.70;;;5.70;99.70;;;;;;10081235;28;20198;-65
2023/03/07 08:22:36;;;;;;;11.55;4.97;;;5.70;99.60;;;;;;10081150;28;20176;-66
2023/03/07 08:27:27;;;;;;;11.18;4.78;;;5.70;99.60;;;;;;10094576;28;20467;-67
2023/03/07 08:32:18;;;;;;;11.00;5.55;;;5.80;99.60;;;;;;10095820;28;20029;-67
2023/03/07 08:37:09;;;;;;;11.05;4.60;;;6.00;99.50;;;;;;10084755;28;20395;-66
2023/03/07 08:41:59;;;;;;;10.75;4.80;;;6.10;99.50;;;;;;10085168;28;20033;-64
2023/03/07 08:46:50;;;;;;;11.85;5.38;;;6.30;99.40;;;;;;10082242;28;20074;-67
2023/03/07 08:51:41;;;;;;;8.02;4.03;;;6.20;99.30;;;;;;10080369;28;20511;-63
2023/03/07 08:56:31;;;;;;;9.73;4.60;;;6.20;99.30;;;;;;10084590;28;20029;-67
2023/03/07 09:01:22;;;;;;;7.80;4.32;;;6.20;99.20;;;;;;10082967;28;20519;-70
2023/03/07 09:06:18;;;;;;;9.77;5.10;;;6.20;99.30;;;;;;10080922;28;20085;-65
2023/03/07 09:11:09;;;;;;;10.55;4.80;;;6.30;99.30;;;;;;10081062;28;20083;-68
2023/03/07 09:16:04;;;;;;;8.45;3.95;;;6.40;99.10;;;;;;10083405;28;20025;-67
2023/03/07 09:20:57;;;;;;;12.32;6.30;;;6.20;99.10;;;;;;10079571;28;20032;-67
2023/03/07 09:25:48;;;;;;;9.15;4.70;;;6.30;99.10;;;;;;10079073;28;20056;-67
2023/03/07 09:30:38;;;;;;;9.23;5.70;;;6.40;99.10;;;;;;10080954;28;20105;-67
2023/03/07 09:35:29;;;;;;;9.02;4.35;;;6.50;99.00;;;;;;10073033;28;20450;-67
2023/03/07 09:40:25;;;;;;;8.82;4.53;;;6.70;99.00;;;;;;10089429;28;20445;-67
2023/03/07 09:45:46;;;;;;;9.02;4.65;;;6.60;99.00;;;;;;10087507;28;20403;-66
2023/03/07 09:50:44;;;;;;;16.10;5.13;;;6.50;99.00;;;;;;10087881;28;20017;-66
2023/03/07 09:55:34;;;;;;;7.07;3.47;;;6.50;99.00;;;;;;10088448;28;20514;-67
2023/03/07 10:00:35;;;;;;;12.10;5.22;;;6.70;98.80;;;;;;10087244;28;20032;-67
2023/03/07 10:05:28;;;;;;;7.75;4.28;;;6.50;98.60;;;;;;10082967;28;20044;-68
2023/03/07 10:10:35;;;;;;;9.38;4.72;;;6.60;98.60;;;;;;10098041;28;20200;-67
2023/03/07 10:15:26;;;;;;;10.10;4.88;;;6.60;98.30;;;;;;10097721;28;20044;-67
2023/03/07 10:20:31;;;;;;;9.15;3.95;;;6.70;98.20;;;;;;10095858;28;20408;-67
2023/03/07 10:25:39;;;;;;;8.35;3.88;;;6.80;98.10;;;;;;10092417;28;20111;-66
2023/03/07 10:30:30;;;;;;;10.85;5.50;;;6.90;97.80;;;;;;10094119;28;20017;-70
2023/03/07 10:35:30;;;;;;;8.95;4.25;;;7.20;97.70;;;;;;10101749;28;20032;-68
2023/03/07 10:40:35;;;;;;;20.42;5.20;;;7.60;97.70;;;;;;10101504;28;20017;-67
2023/03/07 10:45:31;;;;;;;10.20;4.27;;;7.90;97.40;;;;;;10102536;28;20473;-65
2023/03/07 10:50:35;;;;;;;7.07;3.97;;;8.20;97.50;;;;;;10101357;28;20109;-67
2023/03/07 10:55:38;;;;;;;10.27;5.03;;;8.20;97.10;;;;;;10100513;28;20083;-67
2023/03/07 11:00:28;;;;;;;9.00;4.82;;;8.10;97.20;;;;;;10090545;28;20559;-70
2023/03/07 11:05:25;;;;;;;7.70;4.20;;;8.10;96.80;;;;;;10091026;28;20121;-70
2023/03/07 11:10:24;;;;;;;8.85;4.57;;;8.10;96.60;;;;;;10092551;28;20068;-67
2023/03/07 11:15:22;;;;;;;7.68;3.50;;;7.90;96.60;;;;;;10087092;28;20056;-64
2023/03/07 11:20:23;;;;;;;10.18;4.07;;;7.70;96.20;;;;;;10092742;28;20395;-67
2023/03/07 11:25:21;;;;;;;7.75;3.53;;;7.60;96.40;;;;;;10087769;28;20500;-66
2023/03/07 11:30:40;;;;;;;7.50;3.40;;;7.60;96.10;;;;;;10086486;28;20487;-63
2023/03/07 11:35:49;;;;;;;7.10;3.45;;;7.80;95.90;;;;;;10094093;28;20039;-64
2023/03/07 11:40:50;;;;;;;7.70;4.10;;;8.00;95.70;;;;;;10099350;28;20014;-66
2023/03/07 11:46:09;;;;;;;7.03;3.95;;;8.10;95.50;;;;;;10091831;28;20098;-65
2023/03/07 11:51:02;;;;;;;7.30;3.70;;;8.20;95.30;;;;;;10088918;28;20494;-66
2023/03/07 11:56:15;;;;;;;5.93;3.25;;;8.50;95.20;;;;;;10096951;28;20031;-65
2023/03/07 12:01:15;;;;;;;8.25;3.20;;;8.60;94.80;;;;;;10088508;28;20021;-66
2023/03/07 12:06:14;;;;;;;7.72;3.03;;;8.60;94.80;;;;;;10093575;28;20128;-66
2023/03/07 12:11:49;;;;;;;7.45;3.63;;;8.70;94.80;;;;;;10095018;28;20506;-65
2023/03/07 12:16:48;;;;;;;7.97;3.60;;;8.50;94.30;;;;;;10087141;28;20095;-67
2023/03/07 12:22:08;;;;;;;8.60;3.22;;;8.10;94.50;;;;;;10084824;28;20111;-67
2023/03/07 12:27:08;;;;;;;5.35;3.25;;;7.90;94.10;;;;;;10088565;28;20086;-65
2023/03/07 12:32:08;;;;;;;8.85;3.25;;;7.80;94.20;;;;;;10094072;28;20104;-65
2023/03/07 12:37:06;;;;;;;4.78;3.05;;;7.70;94.00;;;;;;10098170;28;20023;-66
2023/03/07 12:42:35;;;;;;;5.38;3.10;;;7.90;93.80;;;;;;10088208;28;20483;-65
2023/03/07 12:47:52;;;;;;;4.68;2.78;;;8.10;93.90;;;;;;10082739;28;20033;-67
2023/03/07 12:53:29;;;;;;;7.97;3.67;;;8.20;93.70;;;;;;10094936;28;20103;-66
2023/03/07 12:58:19;;;;;;;5.90;2.65;;;8.40;93.50;;;;;;9973604;28;20061;-66
2023/03/07 13:03:22;;;;;;;8.38;3.55;;;8.70;93.40;;;;;;10073187;28;20051;-66
2023/03/07 13:08:20;;;;;;;6.07;2.97;;;9.10;93.50;;;;;;10084608;28;20108;-70
2023/03/07 13:13:42;;;;;;;5.82;3.20;;;9.70;93.40;;;;;;10082633;28;20033;-75
2023/03/07 13:18:33;;;;;;;5.38;3.22;;;10.20;92.70;;;;;;10108793;28;20179;-73
2023/03/07 13:23:26;;;;;;;4.90;3.08;;;9.80;93.20;;;;;;10103744;28;20206;-73
2023/03/07 13:28:38;;;;;;;5.70;3.38;;;9.40;93.30;;;;;;10103902;28;20040;-73
2023/03/07 13:33:29;;;;;;;6.55;3.53;;;9.40;93.00;;;;;;10095077;28;20037;-72
2023/03/07 13:38:43;;;;;;;4.20;3.35;;;9.30;92.70;;;;;;10082160;28;20044;-72
2023/03/07 13:43:55;;;;;;;5.25;2.90;;;9.30;92.60;;;;;;10089218;28;20072;-70
2023/03/07 13:48:55;;;;;;;6.93;3.25;;;9.30;92.30;;;;;;10081983;28;20018;-71
2023/03/07 13:53:49;;;;;;;7.70;4.03;;;9.40;92.20;;;;;;10085613;28;20032;-72
2023/03/07 13:58:52;;;;;;;5.30;2.67;;;9.50;92.00;;;;;;10086489;28;20041;-76
2023/03/07 14:03:55;;;;;;;6.82;3.78;;;9.40;91.70;;;;;;10091184;28;20522;-73
2023/03/07 14:08:48;;;;;;;8.57;3.83;;;9.20;91.30;;;;;;10076202;28;20028;-70
2023/03/07 14:14:08;;;;;;;4.03;2.70;;;9.10;91.40;;;;;;10086376;28;20059;-73
2023/03/07 14:19:08;;;;;;;6.60;3.17;;;9.00;91.10;;;;;;10064154;28;20383;-67
2023/03/07 14:24:06;;;;;;;6.75;3.05;;;9.00;91.20;;;;;;10083430;28;20045;-69
2023/03/07 14:29:18;;;;;;;6.88;3.97;;;9.00;90.90;;;;;;10083013;28;20044;-73
2023/03/07 14:34:30;;;;;;;7.93;3.22;;;9.10;90.80;;;;;;10083305;28;20651;-73
2023/03/07 14:39:22;;;;;;;10.65;4.88;;;9.10;90.70;;;;;;10084803;28;20017;-74
2023/03/07 14:44:38;;;;;;;6.88;3.67;;;9.10;90.70;;;;;;10082416;28;20079;-74
2023/03/07 14:49:46;;;;;;;2.63;1.52;;;9.20;90.30;;;;;;10084442;28;20080;-69
2023/03/07 14:54:45;;;;;;;4.95;2.90;;;9.20;90.10;;;;;;10086835;28;20112;-73
2023/03/07 14:59:36;;;;;;;6.78;3.00;;;9.50;90.40;;;;;;10078971;28;20024;-71
2023/03/07 15:04:29;;;;;;;6.55;3.47;;;9.60;90.30;;;;;;10091848;28;20033;-72
2023/03/07 15:09:20;;;;;;;7.65;3.30;;;9.40;90.10;;;;;;10079789;28;20021;-70
2023/03/07 15:14:19;;;;;;;10.02;4.20;;;9.30;90.00;;;;;;10082463;28;20366;-73
2023/03/07 15:19:15;;;;;;;5.88;3.60;;;9.20;89.60;;;;;;10083157;28;20317;-72
2023/03/07 15:24:21;;;;;;;6.03;2.88;;;9.40;89.40;;;;;;10083460;28;20088;-72
2023/03/07 15:29:12;;;;;;;8.48;3.20;;;9.40;89.40;;;;;;10096301;28;20028;-73
2023/03/07 15:34:29;;;;;;;7.28;3.63;;;9.40;89.10;;;;;;10088640;28;20060;-73
2023/03/07 15:39:33;;;;;;;5.05;2.70;;;10.00;88.20;;;;;;10085066;28;20062;-69
2023/03/07 15:44:23;;;;;;;6.05;3.13;;;11.40;88.00;;;;;;10083792;28;20115;-68
2023/03/07 15:49:25;;;;;;;5.65;3.40;;;16.30;83.30;;;;;;10086714;28;20490;-75
2023/03/07 15:54:42;;;;;;;6.93;4.25;;;18.30;81.40;;;;;;10082593;28;20060;-67
2023/03/07 15:59:41;;;;;;;5.93;2.88;;;19.10;76.50;;;;;;10087752;28;20112;-68
2023/03/07 16:04:42;;;;;;;5.38;3.30;;;19.40;75.50;;;;;;10079795;28;20464;-68
2023/03/07 16:09:32;;;;;;;4.47;3.13;;;19.10;72.20;;;;;;10076324;28;20032;-69
2023/03/07 16:14:24;;;;;;;6.35;4.00;;;18.10;71.50;;;;;;10080571;28;20048;-71
2023/03/07 16:19:15;;;;;;;5.68;3.50;;;17.90;70.00;;;;;;10074827;28;20021;-68
2023/03/07 16:24:06;;;;;;;4.85;3.72;;;12.90;72.90;;;;;;10083205;28;20183;-68
2023/03/07 16:28:59;;;;;;;6.35;3.78;;;11.80;74.80;;;;;;10086787;28;20624;-68
2023/03/07 16:33:49;;;;;;;8.18;4.60;;;11.50;73.60;;;;;;10084473;28;20433;-67
2023/03/07 16:38:40;;;;;;;5.63;3.20;;;10.10;75.00;;;;;;10083552;28;20032;-68
2023/03/07 16:43:37;;;;;;;8.52;4.72;;;9.50;75.70;;;;;;10082737;28;20052;-67
2023/03/07 16:48:28;;;;;;;5.72;3.10;;;9.20;76.20;;;;;;10087198;28;20518;-68
2023/03/07 16:53:19;;;;;;;6.10;3.33;;;9.00;76.50;;;;;;10090549;28;20112;-68
2023/03/07 16:58:20;;;;;;;6.00;2.97;;;9.00;76.80;;;;;;10095593;28;20070;-68
2023/03/07 17:03:10;;;;;;;5.55;2.95;;;8.80;77.30;;;;;;10100698;28;20044;-68
2023/03/07 17:08:01;;;;;;;5.82;2.88;;;8.80;77.60;;;;;;10091895;28;20027;-72
2023/03/07 17:12:53;;;;;;;5.85;3.03;;;8.80;77.70;;;;;;10090970;28;20033;-68
2023/03/07 17:17:45;;;;;;;3.58;2.17;;;8.70;78.10;;;;;;10074599;28;20038;-69
2023/03/07 17:22:36;;;;;;;5.20;4.05;;;8.50;78.40;;;;;;10094697;28;20598;-70
2023/03/07 17:27:27;;;;;;;9.02;4.40;;;8.50;79.50;;;;;;10098158;28;20047;-69
2023/03/07 17:32:18;;;;;;;6.15;2.85;;;8.40;78.90;;;;;;10087709;28;20144;-68
2023/03/07 17:37:10;;;;;;;7.45;4.15;;;8.40;79.30;;;;;;10084922;28;20025;-66
2023/03/07 17:42:01;;;;;;;4.90;2.90;;;8.30;79.60;;;;;;10083904;28;20032;-64
2023/03/07 17:46:53;;;;;;;5.93;3.42;;;8.30;80.00;;;;;;10086757;28;20025;-65
2023/03/07 17:51:43;;;;;;;5.22;2.80;;;8.20;80.10;;;;;;10085942;28;20078;-65
2023/03/07 17:56:35;;;;;;;5.68;3.10;;;8.30;80.50;;;;;;10087032;28;20078;-63
2023/03/07 18:01:28;;;;;;;5.10;3.10;;;8.20;80.60;;;;;;10087618;28;20507;-63
2023/03/07 18:06:18;;;;;;;5.85;2.60;;;8.10;81.20;;;;;;10086123;28;20041;-64
2023/03/07 18:11:10;;;;;;;4.75;2.10;;;8.10;81.20;;;;;;10087349;28;20022;-65
2023/03/07 18:16:01;;;;;;;3.58;2.40;;;8.10;81.40;;;;;;10086526;28;20029;-67
2023/03/07 18:21:01;;;;;;;6.00;3.28;;;8.10;81.40;;;;;;10084773;28;20476;-69
2023/03/07 18:25:56;;;;;;;4.28;2.35;;;8.00;81.70;;;;;;10084644;28;20053;-68
2023/03/07 18:30:47;;;;;;;4.68;3.38;;;8.00;82.00;;;;;;10086780;28;20387;-66
2023/03/07 18:35:38;;;;;;;7.47;3.08;;;8.00;82.00;;;;;;10091338;28;20036;-67
2023/03/07 18:40:28;;;;;;;4.75;2.72;;;7.90;82.20;;;;;;10098332;28;20564;-70
2023/03/07 18:45:19;;;;;;;4.13;2.15;;;7.90;82.60;;;;;;10088536;28;20037;-68
2023/03/07 18:50:10;;;;;;;7.63;4.07;;;8.00;82.60;;;;;;10093059;28;20036;-66
2023/03/07 18:55:01;;;;;;;4.72;2.80;;;7.90;82.60;;;;;;10094382;28;20590;-70
2023/03/07 18:59:51;;;;;;;5.63;2.72;;;7.90;82.80;;;;;;10092234;28;20092;-68
2023/03/07 19:04:42;;;;;;;7.43;3.00;;;8.00;82.80;;;;;;10083106;28;20037;-68
2023/03/07 19:09:32;;;;;;;5.90;3.25;;;7.90;83.00;;;;;;10093207;28;20033;-74
2023/03/07 19:14:25;;;;;;;7.22;2.83;;;7.90;83.20;;;;;;10078702;28;20041;-72
2023/03/07 19:19:15;;;;;;;7.22;3.25;;;7.90;83.30;;;;;;10087758;28;20017;-75
2023/03/07 19:24:10;;;;;;;7.22;3.53;;;7.90;83.30;;;;;;10080135;28;20111;-68
2023/03/07 19:29:02;;;;;;;6.93;3.58;;;7.90;83.50;;;;;;10090859;28;20025;-67
2023/03/07 19:33:54;;;;;;;5.22;3.00;;;7.80;83.70;;;;;;10080425;28;20033;-68
2023/03/07 19:38:47;;;;;;;9.27;2.92;;;7.80;83.90;;;;;;10082202;28;20048;-69
2023/03/07 19:43:38;;;;;;;8.13;3.45;;;7.80;84.00;;;;;;10080424;28;20037;-68
2023/03/07 19:48:28;;;;;;;6.28;3.60;;;7.80;84.20;;;;;;10078735;28;20101;-69
2023/03/07 19:53:19;;;;;;;6.13;3.35;;;7.90;84.20;;;;;;10093497;28;20100;-69
2023/03/07 19:58:10;;;;;;;5.35;3.15;;;7.80;85.00;;;;;;10084911;28;20025;-70
2023/03/07 20:03:00;;;;;;;7.80;3.33;;;7.70;84.60;;;;;;10082688;28;20565;-64
2023/03/07 20:07:51;;;;;;;7.90;3.03;;;7.70;84.90;;;;;;10084636;28;20029;-67
2023/03/07 20:12:42;;;;;;;14.77;4.88;;;7.70;85.20;;;;;;10082602;28;20136;-68
2023/03/07 20:17:33;;;;;;;6.60;3.20;;;7.60;85.30;;;;;;10082637;28;20017;-67
2023/03/07 20:22:24;;;;;;;7.95;3.83;;;7.70;85.30;;;;;;10082297;28;20123;-69
2023/03/07 20:27:19;;;;;;;6.18;2.78;;;7.60;85.30;;;;;;10079740;28;20103;-68
2023/03/07 20:32:10;;;;;;;4.05;2.50;;;7.60;85.40;;;;;;10079857;28;20421;-68
2023/03/07 20:37:04;;;;;;;5.82;2.78;;;7.70;85.40;;;;;;10080137;28;20035;-71
2023/03/07 20:41:54;;;;;;;5.97;3.22;;;7.70;85.40;;;;;;10096913;28;20104;-72
2023/03/07 20:46:45;;;;;;;7.45;3.33;;;7.70;85.30;;;;;;10094638;28;20120;-70
2023/03/07 20:51:36;;;;;;;7.78;2.83;;;7.60;85.30;;;;;;10079227;28;20435;-71
2023/03/07 20:56:29;;;;;;;6.20;3.40;;;7.60;85.40;;;;;;10080518;28;20033;-70
2023/03/07 21:01:21;;;;;;;5.13;3.25;;;7.60;85.30;;;;;;10075243;28;20498;-70
2023/03/07 21:06:13;;;;;;;6.00;3.15;;;7.50;85.40;;;;;;10079777;28;20471;-72
2023/03/07 21:11:10;;;;;;;8.38;3.30;;;7.40;85.30;;;;;;10082233;28;20388;-70
2023/03/07 21:16:06;;;;;;;5.00;2.28;;;7.40;85.50;;;;;;10082872;28;20108;-70
2023/03/07 21:21:05;;;;;;;6.47;3.08;;;7.40;85.40;;;;;;10089983;28;20040;-70
2023/03/07 21:26:00;;;;;;;6.70;3.10;;;7.40;85.70;;;;;;10092361;28;20181;-70
2023/03/07 21:30:58;;;;;;;5.68;3.40;;;7.30;85.60;;;;;;10093227;28;20023;-70
2023/03/07 21:35:49;;;;;;;8.27;5.15;;;7.30;85.60;;;;;;10085652;28;20040;-69
2023/03/07 21:40:40;;;;;;;9.48;3.65;;;7.20;85.60;;;;;;10094568;28;20017;-69
2023/03/07 21:45:32;;;;;;;13.07;4.65;;;7.30;85.70;;;;;;10135351;22;20052;-62
2023/03/07 21:50:23;;;;;;;6.97;3.67;;;7.30;85.90;;;;;;10143752;28;20021;-62
2023/03/07 21:55:14;;;;;;;6.38;3.55;;;7.30;86.00;;;;;;10135028;28;20021;-64
2023/03/07 22:00:08;;;;;;;10.38;3.63;;;7.20;86.00;;;;;;10143783;28;20111;-62
2023/03/07 22:04:59;;;;;;;6.35;3.45;;;7.20;86.10;;;;;;10131657;28;20529;-62
2023/03/07 22:09:50;;;;;;;7.30;3.15;;;7.20;86.10;;;;;;10138320;28;20036;-61
2023/03/07 22:14:40;;;;;;;5.25;2.92;;;7.30;86.20;;;;;;10134696;28;20056;-61
2023/03/07 22:19:31;;;;;;;8.93;3.78;;;7.10;86.30;;;;;;10142831;28;20021;-60
2023/03/07 22:24:22;;;;;;;8.38;3.72;;;7.20;86.50;;;;;;10142125;28;20558;-61
2023/03/07 22:29:12;;;;;;;6.55;3.92;;;7.20;86.50;;;;;;10132846;28;20017;-63
2023/03/07 22:34:03;;;;;;;6.38;3.70;;;7.10;86.50;;;;;;10139648;28;20029;-62
2023/03/07 22:38:54;;;;;;;9.98;4.43;;;7.20;86.70;;;;;;10142116;28;20072;-63
2023/03/07 22:43:45;;;;;;;6.85;3.80;;;7.10;86.70;;;;;;10130289;28;20095;-61
2023/03/07 22:48:36;;;;;;;8.52;3.97;;;7.10;86.90;;;;;;10138408;28;20021;-60
2023/03/07 22:53:31;;;;;;;7.68;3.47;;;7.10;86.90;;;;;;10142378;28;20471;-62
2023/03/07 22:58:22;;;;;;;7.68;3.90;;;7.00;87.10;;;;;;10132136;28;20060;-63
2023/03/07 23:03:13;;;;;;;9.63;5.68;;;7.00;87.30;;;;;;10139262;28;20040;-60
2023/03/07 23:08:04;;;;;;;6.47;3.70;;;7.00;87.40;;;;;;10131227;28;20040;-62
2023/03/07 23:12:55;;;;;;;8.38;4.22;;;7.00;87.40;;;;;;10139525;28;20035;-61
2023/03/07 23:17:46;;;;;;;11.98;4.53;;;7.10;87.40;;;;;;10139406;28;20050;-61
2023/03/07 23:22:37;;;;;;;9.95;4.45;;;7.00;87.60;;;;;;10141166;28;20089;-60
2023/03/07 23:27:27;;;;;;;10.75;4.25;;;7.10;87.70;;;;;;10140156;28;20170;-61
2023/03/07 23:32:18;;;;;;;7.88;3.75;;;7.10;87.70;;;;;;10134632;28;20382;-60
2023/03/07 23:37:09;;;;;;;10.77;3.75;;;7.00;87.80;;;;;;10126328;28;20036;-61
2023/03/07 23:41:59;;;;;;;10.45;3.63;;;7.00;88.00;;;;;;10135492;28;20018;-60
2023/03/07 23:46:50;;;;;;;11.02;3.90;;;7.10;87.90;;;;;;10140644;28;20411;-62
2023/03/07 23:51:41;;;;;;;7.85;4.28;;;7.00;88.00;;;;;;10127834;28;20078;-61
2023/03/07 23:56:32;;;;;;;6.38;4.07;;;7.00;88.10;;;;;;10123023;28;20233;-61
